sensor_id;sensor_type;location;lat;lon;timestamp;pressure;altitude;pressure_sealevel;temperature;humidity
76694;BME280;69667;52.136;5.424;2024-01-27T00:00:02;103542.63;;;1.48;100.00
76694;BME280;69667;52.136;5.424;2024-01-27T00:02:35;103543.47;;;1.44;100.00
76694;BME280;69667;52.136;5.424;2024-01-27T00:05:03;103546.16;;;1.45;100.00
76694;BME280;69667;52.136;5.424;2024-01-27T00:07:32;103552.34;;;1.43;100.00
76694;BME280;69667;52.136;5.424;2024-01-27T00:10:02;103554.16;;;1.47;100.00
76694;BME280;69667;52.136;5.424;2024-01-27T00:12:30;103549.69;;;1.49;100.00
76694;BME280;69667;52.136;5.424;2024-01-27T00:14:59;103556.84;;;1.51;100.00
76694;BME280;69667;52.136;5.424;2024-01-27T00:17:27;103554.16;;;1.51;100.00
76694;BME280;69667;52.136;5.424;2024-01-27T00:19:56;103563.91;;;1.52;100.00
76694;BME280;69667;52.136;5.424;2024-01-27T00:22:25;103559.50;;;1.51;100.00
76694;BME280;69667;52.136;5.424;2024-01-27T00:24:53;103559.50;;;1.53;100.00
76694;BME280;69667;52.136;5.424;2024-01-27T00:27:22;103554.16;;;1.51;100.00
76694;BME280;69667;52.136;5.424;2024-01-27T00:30:00;103558.59;;;1.51;100.00
76694;BME280;69667;52.136;5.424;2024-01-27T00:32:31;103555.94;;;1.49;100.00
76694;BME280;69667;52.136;5.424;2024-01-27T00:35:02;103553.25;;;1.45;100.00
76694;BME280;69667;52.136;5.424;2024-01-27T00:37:30;103555.00;;;1.41;100.00
76694;BME280;69667;52.136;5.424;2024-01-27T00:39:59;103555.91;;;1.40;100.00
76694;BME280;69667;52.136;5.424;2024-01-27T00:42:28;103554.06;;;1.35;100.00
76694;BME280;69667;52.136;5.424;2024-01-27T00:44:57;103556.72;;;1.28;100.00
76694;BME280;69667;52.136;5.424;2024-01-27T00:47:25;103556.66;;;1.24;100.00
76694;BME280;69667;52.136;5.424;2024-01-27T00:49:54;103548.66;;;1.21;100.00
76694;BME280;69667;52.136;5.424;2024-01-27T00:52:22;103553.97;;;1.18;100.00
76694;BME280;69667;52.136;5.424;2024-01-27T00:54:51;103546.00;;;1.16;100.00
76694;BME280;69667;52.136;5.424;2024-01-27T00:57:19;103545.97;;;1.15;100.00
76694;BME280;69667;52.136;5.424;2024-01-27T00:59:47;103553.94;;;1.13;100.00
76694;BME280;69667;52.136;5.424;2024-01-27T01:02:15;103554.81;;;1.12;100.00
76694;BME280;69667;52.136;5.424;2024-01-27T01:04:44;103561.88;;;1.10;100.00
76694;BME280;69667;52.136;5.424;2024-01-27T01:07:12;103557.47;;;1.09;100.00
76694;BME280;69667;52.136;5.424;2024-01-27T01:09:40;103564.53;;;1.12;100.00
76694;BME280;69667;52.136;5.424;2024-01-27T01:12:09;103566.34;;;1.13;100.00
76694;BME280;69667;52.136;5.424;2024-01-27T01:14:37;103564.59;;;1.16;100.00
76694;BME280;69667;52.136;5.424;2024-01-27T01:17:07;103573.44;;;1.17;100.00
76694;BME280;69667;52.136;5.424;2024-01-27T01:19:39;103574.34;;;1.19;100.00
76694;BME280;69667;52.136;5.424;2024-01-27T01:22:08;103566.38;;;1.17;100.00
76694;BME280;69667;52.136;5.424;2024-01-27T01:24:39;103576.09;;;1.15;100.00
76694;BME280;69667;52.136;5.424;2024-01-27T01:27:16;103576.97;;;1.11;100.00
76694;BME280;69667;52.136;5.424;2024-01-27T01:29:46;103567.19;;;1.09;100.00
76694;BME280;69667;52.136;5.424;2024-01-27T01:32:14;103570.72;;;1.05;100.00
76694;BME280;69667;52.136;5.424;2024-01-27T01:34:43;103565.41;;;1.03;100.00
76694;BME280;69667;52.136;5.424;2024-01-27T01:37:12;103554.72;;;0.99;100.00
76694;BME280;69667;52.136;5.424;2024-01-27T01:39:41;103555.56;;;0.93;100.00
76694;BME280;69667;52.136;5.424;2024-01-27T01:42:09;103566.16;;;0.90;100.00
76694;BME280;69667;52.136;5.424;2024-01-27T01:44:37;103558.19;;;0.90;100.00
76694;BME280;69667;52.136;5.424;2024-01-27T01:47:06;103560.91;;;0.93;100.00
76694;BME280;69667;52.136;5.424;2024-01-27T01:49:35;103563.56;;;0.93;100.00
76694;BME280;69667;52.136;5.424;2024-01-27T01:52:04;103566.16;;;0.90;100.00
76694;BME280;69667;52.136;5.424;2024-01-27T01:54:32;103565.28;;;0.88;100.00
76694;BME280;69667;52.136;5.424;2024-01-27T01:57:02;103580.31;;;0.85;100.00
76694;BME280;69667;52.136;5.424;2024-01-27T01:59:31;103575.84;;;0.84;100.00
76694;BME280;69667;52.136;5.424;2024-01-27T02:02:04;103580.31;;;0.83;100.00
76694;BME280;69667;52.136;5.424;2024-01-27T02:04:41;103576.75;;;0.83;100.00
76694;BME280;69667;52.136;5.424;2024-01-27T02:07:10;103571.44;;;0.83;100.00
76694;BME280;69667;52.136;5.424;2024-01-27T02:09:38;103574.06;;;0.81;100.00
76694;BME280;69667;52.136;5.424;2024-01-27T02:12:07;103574.09;;;0.83;100.00
76694;BME280;69667;52.136;5.424;2024-01-27T02:14:35;103567.00;;;0.83;100.00
76694;BME280;69667;52.136;5.424;2024-01-27T02:17:03;103570.53;;;0.81;100.00
76694;BME280;69667;52.136;5.424;2024-01-27T02:19:38;103570.47;;;0.73;100.00
76694;BME280;69667;52.136;5.424;2024-01-27T02:22:06;103573.06;;;0.69;100.00
76694;BME280;69667;52.136;5.424;2024-01-27T02:24:34;103574.81;;;0.65;100.00
76694;BME280;69667;52.136;5.424;2024-01-27T02:27:03;103574.78;;;0.62;100.00
76694;BME280;69667;52.136;5.424;2024-01-27T02:29:31;103567.69;;;0.58;100.00
76694;BME280;69667;52.136;5.424;2024-01-27T02:32:01;103566.75;;;0.55;100.00
76694;BME280;69667;52.136;5.424;2024-01-27T02:34:30;103571.16;;;0.54;100.00
76694;BME280;69667;52.136;5.424;2024-01-27T02:36:58;103576.44;;;0.50;100.00
76694;BME280;69667;52.136;5.424;2024-01-27T02:39:29;103565.84;;;0.53;100.00
76694;BME280;69667;52.136;5.424;2024-01-27T02:42:03;103572.06;;;0.53;100.00
76694;BME280;69667;52.136;5.424;2024-01-27T02:44:39;103572.94;;;0.55;100.00
76694;BME280;69667;52.136;5.424;2024-01-27T02:47:08;103570.31;;;0.57;100.00
76694;BME280;69667;52.136;5.424;2024-01-27T02:49:38;103581.78;;;0.54;100.00
76694;BME280;69667;52.136;5.424;2024-01-27T02:52:06;103592.41;;;0.51;100.00
76694;BME280;69667;52.136;5.424;2024-01-27T02:54:34;103586.19;;;0.51;100.00
76694;BME280;69667;52.136;5.424;2024-01-27T02:57:03;103590.66;;;0.55;100.00
76694;BME280;69667;52.136;5.424;2024-01-27T02:59:31;103588.00;;;0.55;100.00
76694;BME280;69667;52.136;5.424;2024-01-27T03:02:06;103588.88;;;0.55;100.00
76694;BME280;69667;52.136;5.424;2024-01-27T03:04:34;103580.06;;;0.59;100.00
76694;BME280;69667;52.136;5.424;2024-01-27T03:07:03;103577.41;;;0.59;100.00
76694;BME280;69667;52.136;5.424;2024-01-27T03:09:32;103583.59;;;0.57;100.00
76694;BME280;69667;52.136;5.424;2024-01-27T03:12:02;103581.81;;;0.56;100.00
76694;BME280;69667;52.136;5.424;2024-01-27T03:14:30;103588.03;;;0.56;100.00
76694;BME280;69667;52.136;5.424;2024-01-27T03:16:58;103583.59;;;0.57;100.00
76694;BME280;69667;52.136;5.424;2024-01-27T03:19:28;103587.13;;;0.59;100.00
76694;BME280;69667;52.136;5.424;2024-01-27T03:21:57;103587.16;;;0.60;100.00
76694;BME280;69667;52.136;5.424;2024-01-27T03:24:25;103585.44;;;0.65;100.00
76694;BME280;69667;52.136;5.424;2024-01-27T03:26:54;103575.72;;;0.69;100.00
76694;BME280;69667;52.136;5.424;2024-01-27T03:29:22;103573.97;;;0.71;100.00
76694;BME280;69667;52.136;5.424;2024-01-27T03:31:51;103575.78;;;0.73;100.00
76694;BME280;69667;52.136;5.424;2024-01-27T03:34:19;103571.31;;;0.72;100.00
76694;BME280;69667;52.136;5.424;2024-01-27T03:36:52;103573.97;;;0.69;100.00
76694;BME280;69667;52.136;5.424;2024-01-27T03:39:21;103572.22;;;0.71;100.00
76694;BME280;69667;52.136;5.424;2024-01-27T03:41:49;103573.06;;;0.70;100.00
76694;BME280;69667;52.136;5.424;2024-01-27T03:44:17;103575.72;;;0.70;100.00
76694;BME280;69667;52.136;5.424;2024-01-27T03:46:46;103581.94;;;0.69;100.00
76694;BME280;69667;52.136;5.424;2024-01-27T03:49:15;103579.28;;;0.71;100.00
76694;BME280;69667;52.136;5.424;2024-01-27T03:51:44;103586.41;;;0.73;100.00
76694;BME280;69667;52.136;5.424;2024-01-27T03:54:12;103579.31;;;0.74;100.00
76694;BME280;69667;52.136;5.424;2024-01-27T03:56:41;103595.28;;;0.77;100.00
76694;BME280;69667;52.136;5.424;2024-01-27T03:59:10;103588.22;;;0.79;100.00
76694;BME280;69667;52.136;5.424;2024-01-27T04:01:38;103587.38;;;0.81;100.00
76694;BME280;69667;52.136;5.424;2024-01-27T04:04:07;103595.34;;;0.83;100.00
76694;BME280;69667;52.136;5.424;2024-01-27T04:06:39;103593.56;;;0.82;100.00
76694;BME280;69667;52.136;5.424;2024-01-27T04:09:07;103590.88;;;0.80;100.00
76694;BME280;69667;52.136;5.424;2024-01-27T04:11:37;103578.47;;;0.78;100.00
76694;BME280;69667;52.136;5.424;2024-01-27T04:14:06;103589.13;;;0.79;100.00
76694;BME280;69667;52.136;5.424;2024-01-27T04:16:35;103592.69;;;0.83;100.00
76694;BME280;69667;52.136;5.424;2024-01-27T04:19:03;103595.34;;;0.81;100.00
76694;BME280;69667;52.136;5.424;2024-01-27T04:21:32;103598.84;;;0.80;100.00
76694;BME280;69667;52.136;5.424;2024-01-27T04:24:01;103594.44;;;0.79;100.00
76694;BME280;69667;52.136;5.424;2024-01-27T04:26:30;103590.88;;;0.80;100.00
76694;BME280;69667;52.136;5.424;2024-01-27T04:28:58;103593.50;;;0.76;100.00
76694;BME280;69667;52.136;5.424;2024-01-27T04:31:27;103589.09;;;0.78;100.00
76694;BME280;69667;52.136;5.424;2024-01-27T04:33:58;103603.25;;;0.77;100.00
76694;BME280;69667;52.136;5.424;2024-01-27T04:36:28;103604.16;;;0.77;100.00
76694;BME280;69667;52.136;5.424;2024-01-27T04:38:57;103609.47;;;0.77;100.00
76694;BME280;69667;52.136;5.424;2024-01-27T04:41:25;103615.69;;;0.76;100.00
76694;BME280;69667;52.136;5.424;2024-01-27T04:43:53;103612.13;;;0.76;100.00
76694;BME280;69667;52.136;5.424;2024-01-27T04:46:25;103605.91;;;0.75;100.00
76694;BME280;69667;52.136;5.424;2024-01-27T04:48:53;103603.22;;;0.71;100.00
76694;BME280;69667;52.136;5.424;2024-01-27T04:51:22;103600.53;;;0.68;100.00
76694;BME280;69667;52.136;5.424;2024-01-27T04:53:50;103605.84;;;0.68;100.00
76694;BME280;69667;52.136;5.424;2024-01-27T04:56:19;103603.19;;;0.68;100.00
76694;BME280;69667;52.136;5.424;2024-01-27T04:58:47;103617.31;;;0.65;100.00
76694;BME280;69667;52.136;5.424;2024-01-27T05:01:16;103613.78;;;0.65;100.00
76694;BME280;69667;52.136;5.424;2024-01-27T05:03:44;103613.78;;;0.62;100.00
76694;BME280;69667;52.136;5.424;2024-01-27T05:06:16;103612.88;;;0.63;100.00
76694;BME280;69667;52.136;5.424;2024-01-27T05:08:45;103606.69;;;0.64;100.00
76694;BME280;69667;52.136;5.424;2024-01-27T05:11:13;103605.84;;;0.68;100.00
76694;BME280;69667;52.136;5.424;2024-01-27T05:13:42;103601.44;;;0.71;100.00
76694;BME280;69667;52.136;5.424;2024-01-27T05:16:11;103609.41;;;0.70;100.00
76694;BME280;69667;52.136;5.424;2024-01-27T05:18:39;103610.28;;;0.70;100.00
76694;BME280;69667;52.136;5.424;2024-01-27T05:21:07;103592.56;;;0.69;100.00
76694;BME280;69667;52.136;5.424;2024-01-27T05:23:36;103582.81;;;0.68;100.00
76694;BME280;69667;52.136;5.424;2024-01-27T05:26:05;103583.69;;;0.70;100.00
76694;BME280;69667;52.136;5.424;2024-01-27T05:28:34;103592.56;;;0.69;100.00
76694;BME280;69667;52.136;5.424;2024-01-27T05:31:06;103588.16;;;0.71;100.00
76694;BME280;69667;52.136;5.424;2024-01-27T05:33:38;103584.63;;;0.72;100.00
76694;BME280;69667;52.136;5.424;2024-01-27T05:36:07;103580.19;;;0.71;100.00
76694;BME280;69667;52.136;5.424;2024-01-27T05:38:35;103570.41;;;0.70;100.00
76694;BME280;69667;52.136;5.424;2024-01-27T05:41:03;103582.81;;;0.68;100.00
76694;BME280;69667;52.136;5.424;2024-01-27T05:43:32;103584.59;;;0.68;100.00
76694;BME280;69667;52.136;5.424;2024-01-27T05:46:03;103588.97;;;0.66;100.00
76694;BME280;69667;52.136;5.424;2024-01-27T05:48:31;103573.94;;;0.66;100.00
76694;BME280;69667;52.136;5.424;2024-01-27T05:51:04;103581.00;;;0.64;100.00
76694;BME280;69667;52.136;5.424;2024-01-27T05:53:35;103582.75;;;0.64;100.00
76694;BME280;69667;52.136;5.424;2024-01-27T05:56:05;103581.91;;;0.66;100.00
76694;BME280;69667;52.136;5.424;2024-01-27T05:58:33;103584.56;;;0.65;100.00
76694;BME280;69667;52.136;5.424;2024-01-27T06:01:03;103586.31;;;0.66;100.00
76694;BME280;69667;52.136;5.424;2024-01-27T06:03:32;103584.59;;;0.69;100.00
76694;BME280;69667;52.136;5.424;2024-01-27T06:06:03;103565.09;;;0.69;100.00
76694;BME280;69667;52.136;5.424;2024-01-27T06:08:33;103569.53;;;0.68;100.00
76694;BME280;69667;52.136;5.424;2024-01-27T06:11:01;103580.19;;;0.70;100.00
76694;BME280;69667;52.136;5.424;2024-01-27T06:13:34;103578.38;;;0.67;100.00
76694;BME280;69667;52.136;5.424;2024-01-27T06:16:08;103590.81;;;0.68;100.00
76694;BME280;69667;52.136;5.424;2024-01-27T06:18:37;103594.34;;;0.70;100.00
76694;BME280;69667;52.136;5.424;2024-01-27T06:21:05;103593.47;;;0.71;100.00
76694;BME280;69667;52.136;5.424;2024-01-27T06:23:34;103593.47;;;0.68;100.00
76694;BME280;69667;52.136;5.424;2024-01-27T06:26:06;103591.66;;;0.67;100.00
76694;BME280;69667;52.136;5.424;2024-01-27T06:28:37;103594.31;;;0.67;100.00
76694;BME280;69667;52.136;5.424;2024-01-27T06:31:06;103588.09;;;0.67;100.00
76694;BME280;69667;52.136;5.424;2024-01-27T06:33:36;103598.69;;;0.62;100.00
76694;BME280;69667;52.136;5.424;2024-01-27T06:36:04;103590.72;;;0.62;100.00
76694;BME280;69667;52.136;5.424;2024-01-27T06:38:33;103596.94;;;0.64;100.00
76694;BME280;69667;52.136;5.424;2024-01-27T06:41:03;103594.28;;;0.64;100.00
76694;BME280;69667;52.136;5.424;2024-01-27T06:43:31;103594.28;;;0.64;100.00
76694;BME280;69667;52.136;5.424;2024-01-27T06:46:00;103589.88;;;0.65;100.00
76694;BME280;69667;52.136;5.424;2024-01-27T06:48:31;103598.69;;;0.64;100.00
76694;BME280;69667;52.136;5.424;2024-01-27T06:50:59;103595.16;;;0.62;100.00
76694;BME280;69667;52.136;5.424;2024-01-27T06:53:31;103594.25;;;0.61;100.00
76694;BME280;69667;52.136;5.424;2024-01-27T06:55:59;103594.25;;;0.61;100.00
76694;BME280;69667;52.136;5.424;2024-01-27T06:58:33;103603.09;;;0.59;100.00
76694;BME280;69667;52.136;5.424;2024-01-27T07:01:03;103605.75;;;0.59;100.00
76694;BME280;69667;52.136;5.424;2024-01-27T07:03:31;103598.66;;;0.56;100.00
76694;BME280;69667;52.136;5.424;2024-01-27T07:05:59;103604.78;;;0.52;100.00
76694;BME280;69667;52.136;5.424;2024-01-27T07:08:33;103606.53;;;0.50;100.00
76694;BME280;69667;52.136;5.424;2024-01-27T07:11:05;103608.31;;;0.50;100.00
76694;BME280;69667;52.136;5.424;2024-01-27T07:13:33;103610.91;;;0.45;100.00
76694;BME280;69667;52.136;5.424;2024-01-27T07:16:02;103620.69;;;0.46;100.00
76694;BME280;69667;52.136;5.424;2024-01-27T07:18:31;103619.78;;;0.47;100.00
76694;BME280;69667;52.136;5.424;2024-01-27T07:20:59;103632.22;;;0.47;100.00
76694;BME280;69667;52.136;5.424;2024-01-27T07:23:34;103629.56;;;0.47;100.00
76694;BME280;69667;52.136;5.424;2024-01-27T07:26:04;103631.34;;;0.49;100.00
76694;BME280;69667;52.136;5.424;2024-01-27T07:28:32;103634.03;;;0.54;100.00
76694;BME280;69667;52.136;5.424;2024-01-27T07:31:03;103631.44;;;0.57;100.00
76694;BME280;69667;52.136;5.424;2024-01-27T07:33:31;103628.81;;;0.61;100.00
76694;BME280;69667;52.136;5.424;2024-01-27T07:36:00;103632.38;;;0.63;100.00
76694;BME280;69667;52.136;5.424;2024-01-27T07:38:29;103633.28;;;0.67;100.00
76694;BME280;69667;52.136;5.424;2024-01-27T07:40:57;103635.09;;;0.72;100.00
76694;BME280;69667;52.136;5.424;2024-01-27T07:43:27;103636.94;;;0.76;100.00
76694;BME280;69667;52.136;5.424;2024-01-27T07:45:56;103646.69;;;0.80;100.00
76694;BME280;69667;52.136;5.424;2024-01-27T07:48:24;103643.22;;;0.84;100.00
76694;BME280;69667;52.136;5.424;2024-01-27T07:50:53;103652.09;;;0.88;100.00
76694;BME280;69667;52.136;5.424;2024-01-27T07:53:24;103645.06;;;0.91;100.00
76694;BME280;69667;52.136;5.424;2024-01-27T07:55:52;103641.53;;;0.97;100.00
76694;BME280;69667;52.136;5.424;2024-01-27T07:58:21;103657.56;;;1.03;100.00
76694;BME280;69667;52.136;5.424;2024-01-27T08:00:50;103646.97;;;1.07;100.00
76694;BME280;69667;52.136;5.424;2024-01-27T08:03:19;103642.56;;;1.11;100.00
76694;BME280;69667;52.136;5.424;2024-01-27T08:05:48;103641.75;;;1.19;100.00
76694;BME280;69667;52.136;5.424;2024-01-27T08:08:18;103651.56;;;1.26;100.00
76694;BME280;69667;52.136;5.424;2024-01-27T08:10:46;103646.31;;;1.36;100.00
76694;BME280;69667;52.136;5.424;2024-01-27T08:13:21;103648.16;;;1.47;100.00
76694;BME280;69667;52.136;5.424;2024-01-27T08:15:51;103644.69;;;1.59;100.00
76694;BME280;69667;52.136;5.424;2024-01-27T08:18:19;103646.50;;;1.67;100.00
76694;BME280;69667;52.136;5.424;2024-01-27T08:20:47;103645.69;;;1.76;100.00
76694;BME280;69667;52.136;5.424;2024-01-27T08:23:16;103650.19;;;1.86;100.00
76694;BME280;69667;52.136;5.424;2024-01-27T08:25:47;103651.16;;;1.97;100.00
76694;BME280;69667;52.136;5.424;2024-01-27T08:28:19;103653.84;;;2.06;100.00
76694;BME280;69667;52.136;5.424;2024-01-27T08:30:47;103653.00;;;2.13;100.00
76694;BME280;69667;52.136;5.424;2024-01-27T08:33:16;103656.56;;;2.21;100.00
76694;BME280;69667;52.136;5.424;2024-01-27T08:35:46;103653.94;;;2.28;100.00
76694;BME280;69667;52.136;5.424;2024-01-27T08:38:36;103653.97;;;2.39;100.00
76694;BME280;69667;52.136;5.424;2024-01-27T08:41:05;103653.09;;;2.46;100.00
76694;BME280;69667;52.136;5.424;2024-01-27T08:43:34;103652.25;;;2.54;100.00
76694;BME280;69667;52.136;5.424;2024-01-27T08:46:04;103645.16;;;2.66;100.00
76694;BME280;69667;52.136;5.424;2024-01-27T08:48:35;103650.53;;;2.79;100.00
76694;BME280;69667;52.136;5.424;2024-01-27T08:51:05;103649.66;;;2.89;100.00
76694;BME280;69667;52.136;5.424;2024-01-27T08:53:33;103644.31;;;3.01;100.00
76694;BME280;69667;52.136;5.424;2024-01-27T08:56:02;103645.22;;;3.09;100.00
76694;BME280;69667;52.136;5.424;2024-01-27T08:58:32;103646.13;;;3.20;100.00
76694;BME280;69667;52.136;5.424;2024-01-27T09:01:01;103651.44;;;3.32;100.00
76694;BME280;69667;52.136;5.424;2024-01-27T09:03:33;103656.75;;;3.47;100.00
76694;BME280;69667;52.136;5.424;2024-01-27T09:06:01;103657.66;;;3.61;100.00
76694;BME280;69667;52.136;5.424;2024-01-27T09:08:31;103651.44;;;3.65;100.00
76694;BME280;69667;52.136;5.424;2024-01-27T09:10:59;103659.41;;;3.74;100.00
76694;BME280;69667;52.136;5.424;2024-01-27T09:13:29;103656.75;;;3.70;100.00
76694;BME280;69667;52.136;5.424;2024-01-27T09:15:58;103652.31;;;3.70;100.00
76694;BME280;69667;52.136;5.424;2024-01-27T09:18:33;103651.38;;;3.74;100.00
76694;BME280;69667;52.136;5.424;2024-01-27T09:21:03;103662.94;;;3.79;100.00
76694;BME280;69667;52.136;5.424;2024-01-27T09:23:33;103665.66;;;3.73;100.00
76694;BME280;69667;52.136;5.424;2024-01-27T09:26:01;103666.56;;;3.65;100.00
76694;BME280;69667;52.136;5.424;2024-01-27T09:28:31;103672.78;;;3.65;100.00
76694;BME280;69667;52.136;5.424;2024-01-27T09:30:59;103669.97;;;4.20;100.00
76694;BME280;69667;52.136;5.424;2024-01-27T09:33:31;103659.22;;;5.59;100.00
76694;BME280;69667;52.136;5.424;2024-01-27T09:36:03;103664.94;;;6.77;100.00
76694;BME280;69667;52.136;5.424;2024-01-27T09:38:36;103673.41;;;7.08;100.00
76694;BME280;69667;52.136;5.424;2024-01-27T09:41:04;103671.50;;;6.57;100.00
76694;BME280;69667;52.136;5.424;2024-01-27T09:43:33;103679.94;;;6.26;100.00
76694;BME280;69667;52.136;5.424;2024-01-27T09:46:02;103687.91;;;6.34;100.00
76694;BME280;69667;52.136;5.424;2024-01-27T09:48:31;103686.00;;;8.06;100.00
76694;BME280;69667;52.136;5.424;2024-01-27T09:51:01;103690.41;;;8.56;100.00
76694;BME280;69667;52.136;5.424;2024-01-27T09:53:32;103692.88;;;8.65;100.00
76694;BME280;69667;52.136;5.424;2024-01-27T09:56:03;103693.38;;;9.57;100.00
76694;BME280;69667;52.136;5.424;2024-01-27T09:58:31;103683.19;;;10.92;96.54
76694;BME280;69667;52.136;5.424;2024-01-27T10:01:01;103684.53;;;13.69;81.91
76694;BME280;69667;52.136;5.424;2024-01-27T10:03:30;103681.63;;;15.98;70.56
76694;BME280;69667;52.136;5.424;2024-01-27T10:06:01;103684.66;;;17.54;60.28
76694;BME280;69667;52.136;5.424;2024-01-27T10:08:31;103684.38;;;17.88;55.31
76694;BME280;69667;52.136;5.424;2024-01-27T10:10:59;103687.88;;;17.29;55.67
76694;BME280;69667;52.136;5.424;2024-01-27T10:13:35;103691.19;;;15.54;58.42
76694;BME280;69667;52.136;5.424;2024-01-27T10:16:05;103688.91;;;13.93;61.89
76694;BME280;69667;52.136;5.424;2024-01-27T10:18:34;103693.44;;;12.14;68.90
76694;BME280;69667;52.136;5.424;2024-01-27T10:21:16;103695.50;;;13.66;66.85
76694;BME280;69667;52.136;5.424;2024-01-27T10:23:45;103697.59;;;15.53;60.31
76694;BME280;69667;52.136;5.424;2024-01-27T10:26:15;103697.38;;;14.06;61.19
76694;BME280;69667;52.136;5.424;2024-01-27T10:28:55;103698.03;;;13.06;66.01
76694;BME280;69667;52.136;5.424;2024-01-27T10:31:42;103697.53;;;15.72;60.60
76694;BME280;69667;52.136;5.424;2024-01-27T10:34:10;103694.75;;;17.36;53.95
76694;BME280;69667;52.136;5.424;2024-01-27T10:36:43;103693.09;;;18.66;50.09
76694;BME280;69667;52.136;5.424;2024-01-27T10:39:19;103699.47;;;19.22;47.29
76694;BME280;69667;52.136;5.424;2024-01-27T10:41:49;103703.19;;;19.35;45.93
76694;BME280;69667;52.136;5.424;2024-01-27T10:44:19;103695.59;;;20.18;44.68
76694;BME280;69667;52.136;5.424;2024-01-27T10:46:49;103701.75;;;20.59;43.64
76694;BME280;69667;52.136;5.424;2024-01-27T10:49:18;103697.06;;;20.36;43.10
76694;BME280;69667;52.136;5.424;2024-01-27T10:51:56;103692.09;;;20.29;42.93
76694;BME280;69667;52.136;5.424;2024-01-27T10:54:26;103682.69;;;19.00;42.36
76694;BME280;69667;52.136;5.424;2024-01-27T10:56:56;103680.19;;;18.68;44.38
76694;BME280;69667;52.136;5.424;2024-01-27T10:59:27;103673.88;;;18.10;46.58
76694;BME280;69667;52.136;5.424;2024-01-27T11:01:56;103672.63;;;15.79;50.17
76694;BME280;69667;52.136;5.424;2024-01-27T11:04:25;103678.38;;;15.02;51.58
76694;BME280;69667;52.136;5.424;2024-01-27T11:06:55;103683.31;;;14.17;55.23
76694;BME280;69667;52.136;5.424;2024-01-27T11:09:24;103680.00;;;14.10;55.60
76694;BME280;69667;52.136;5.424;2024-01-27T11:11:53;103678.03;;;13.93;55.82
76694;BME280;69667;52.136;5.424;2024-01-27T11:14:22;103682.84;;;12.56;57.66
76694;BME280;69667;52.136;5.424;2024-01-27T11:16:59;103667.78;;;10.95;64.52
76694;BME280;69667;52.136;5.424;2024-01-27T11:19:28;103689.00;;;10.18;66.96
76694;BME280;69667;52.136;5.424;2024-01-27T11:22:02;103690.41;;;9.67;70.87
76694;BME280;69667;52.136;5.424;2024-01-27T11:24:31;103689.38;;;9.71;72.53
76694;BME280;69667;52.136;5.424;2024-01-27T11:27:01;103691.25;;;9.69;74.12
76694;BME280;69667;52.136;5.424;2024-01-27T11:29:30;103684.69;;;9.46;75.84
76694;BME280;69667;52.136;5.424;2024-01-27T11:32:01;103680.56;;;9.30;76.89
76694;BME280;69667;52.136;5.424;2024-01-27T11:34:47;103680.59;;;9.28;77.58
76694;BME280;69667;52.136;5.424;2024-01-27T11:37:17;103675.88;;;9.03;78.71
76694;BME280;69667;52.136;5.424;2024-01-27T11:39:51;103673.72;;;9.17;80.46
76694;BME280;69667;52.136;5.424;2024-01-27T11:42:19;103681.19;;;9.06;79.73
76694;BME280;69667;52.136;5.424;2024-01-27T11:44:48;103675.44;;;8.82;79.24
76694;BME280;69667;52.136;5.424;2024-01-27T11:47:19;103667.59;;;8.72;80.04
76694;BME280;69667;52.136;5.424;2024-01-27T11:49:52;103669.69;;;8.58;80.98
76694;BME280;69667;52.136;5.424;2024-01-27T11:52:21;103673.34;;;8.55;82.16
76694;BME280;69667;52.136;5.424;2024-01-27T11:55:00;103656.22;;;8.58;82.42
76694;BME280;69667;52.136;5.424;2024-01-27T11:57:28;103657.31;;;8.51;81.87
76694;BME280;69667;52.136;5.424;2024-01-27T11:59:57;103654.78;;;8.43;82.56
76694;BME280;69667;52.136;5.424;2024-01-27T12:02:25;103654.63;;;8.51;84.42
76694;BME280;69667;52.136;5.424;2024-01-27T12:04:54;103651.84;;;8.54;83.70
76694;BME280;69667;52.136;5.424;2024-01-27T12:07:22;103661.72;;;8.53;84.04
76694;BME280;69667;52.136;5.424;2024-01-27T12:09:51;103660.81;;;8.54;84.20
76694;BME280;69667;52.136;5.424;2024-01-27T12:12:20;103661.00;;;8.45;83.62
76694;BME280;69667;52.136;5.424;2024-01-27T12:14:49;103660.25;;;8.39;83.58
76694;BME280;69667;52.136;5.424;2024-01-27T12:17:18;103660.41;;;8.33;84.23
76694;BME280;69667;52.136;5.424;2024-01-27T12:19:51;103655.81;;;8.36;83.81
76694;BME280;69667;52.136;5.424;2024-01-27T12:22:27;103650.31;;;8.42;85.12
76694;BME280;69667;52.136;5.424;2024-01-27T12:25:07;103648.59;;;8.38;84.44
76694;BME280;69667;52.136;5.424;2024-01-27T12:27:36;103646.97;;;8.30;83.66
76694;BME280;69667;52.136;5.424;2024-01-27T12:30:06;103653.22;;;8.32;84.44
76694;BME280;69667;52.136;5.424;2024-01-27T12:32:35;103641.56;;;8.31;84.84
76694;BME280;69667;52.136;5.424;2024-01-27T12:35:06;103649.59;;;8.34;84.84
76694;BME280;69667;52.136;5.424;2024-01-27T12:37:35;103635.34;;;8.29;85.35
76694;BME280;69667;52.136;5.424;2024-01-27T12:40:23;103637.94;;;8.34;85.29
76694;BME280;69667;52.136;5.424;2024-01-27T12:42:51;103643.09;;;8.43;85.90
76694;BME280;69667;52.136;5.424;2024-01-27T12:45:19;103646.88;;;8.36;85.17
76694;BME280;69667;52.136;5.424;2024-01-27T12:47:48;103671.28;;;8.27;85.35
76694;BME280;69667;52.136;5.424;2024-01-27T12:50:17;103661.44;;;8.26;86.05
76694;BME280;69667;52.136;5.424;2024-01-27T12:52:45;103657.00;;;8.23;86.72
76694;BME280;69667;52.136;5.424;2024-01-27T12:55:13;103663.31;;;8.21;85.98
76694;BME280;69667;52.136;5.424;2024-01-27T12:57:43;103662.59;;;8.13;85.86
76694;BME280;69667;52.136;5.424;2024-01-27T13:00:12;103648.22;;;8.12;85.91
76694;BME280;69667;52.136;5.424;2024-01-27T13:02:42;103652.75;;;8.10;86.05